sensor_id;sensor_type;location;lat;lon;timestamp;temperature;humidity
24518;DHT22;12678;51.336;12.406;2024-01-15T00:01:28;3.00;99.90
24518;DHT22;12678;51.336;12.406;2024-01-15T00:03:54;3.00;99.90
24518;DHT22;12678;51.336;12.406;2024-01-15T00:06:19;2.90;99.90
24518;DHT22;12678;51.336;12.406;2024-01-15T00:08:45;3.00;99.90
24518;DHT22;12678;51.336;12.406;2024-01-15T00:11:11;2.90;99.90
24518;DHT22;12678;51.336;12.406;2024-01-15T00:13:36;2.90;99.90
24518;DHT22;12678;51.336;12.406;2024-01-15T00:16:06;2.90;99.90
24518;DHT22;12678;51.336;12.406;2024-01-15T00:18:31;2.90;99.90
24518;DHT22;12678;51.336;12.406;2024-01-15T00:20:57;2.80;99.90
24518;DHT22;12678;51.336;12.406;2024-01-15T00:23:23;2.70;99.90
24518;DHT22;12678;51.336;12.406;2024-01-15T00:25:50;2.70;99.90
24518;DHT22;12678;51.336;12.406;2024-01-15T00:28:16;2.70;99.90
24518;DHT22;12678;51.336;12.406;2024-01-15T00:30:41;2.60;99.90
24518;DHT22;12678;51.336;12.406;2024-01-15T00:33:07;2.50;99.90
24518;DHT22;12678;51.336;12.406;2024-01-15T00:35:32;2.50;99.90
24518;DHT22;12678;51.336;12.406;2024-01-15T00:37:58;2.50;99.90
24518;DHT22;12678;51.336;12.406;2024-01-15T00:40:23;2.50;99.90
24518;DHT22;12678;51.336;12.406;2024-01-15T00:42:50;2.40;99.90
24518;DHT22;12678;51.336;12.406;2024-01-15T00:45:16;2.50;99.90
24518;DHT22;12678;51.336;12.406;2024-01-15T00:47:41;2.40;99.90
24518;DHT22;12678;51.336;12.406;2024-01-15T00:50:07;2.50;99.90
24518;DHT22;12678;51.336;12.406;2024-01-15T00:52:33;2.50;99.90
24518;DHT22;12678;51.336;12.406;2024-01-15T00:54:59;2.50;99.90
24518;DHT22;12678;51.336;12.406;2024-01-15T00:57:24;2.50;99.90
24518;DHT22;12678;51.336;12.406;2024-01-15T00:59:50;2.50;99.90
24518;DHT22;12678;51.336;12.406;2024-01-15T01:02:15;2.50;99.90
24518;DHT22;12678;51.336;12.406;2024-01-15T01:04:41;2.60;99.90
24518;DHT22;12678;51.336;12.406;2024-01-15T01:07:06;2.60;99.90
24518;DHT22;12678;51.336;12.406;2024-01-15T01:09:32;2.60;99.90
24518;DHT22;12678;51.336;12.406;2024-01-15T01:11:58;2.60;99.90
24518;DHT22;12678;51.336;12.406;2024-01-15T01:14:23;2.70;99.90
24518;DHT22;12678;51.336;12.406;2024-01-15T01:16:49;2.70;99.90
24518;DHT22;12678;51.336;12.406;2024-01-15T01:19:15;2.60;99.90
24518;DHT22;12678;51.336;12.406;2024-01-15T01:21:40;2.60;99.90
24518;DHT22;12678;51.336;12.406;2024-01-15T01:24:06;2.70;99.90
24518;DHT22;12678;51.336;12.406;2024-01-15T01:26:31;2.60;99.90
24518;DHT22;12678;51.336;12.406;2024-01-15T01:28:57;2.60;99.90
24518;DHT22;12678;51.336;12.406;2024-01-15T01:31:23;2.60;99.90
24518;DHT22;12678;51.336;12.406;2024-01-15T01:33:49;2.50;99.90
24518;DHT22;12678;51.336;12.406;2024-01-15T01:36:14;2.50;99.90
24518;DHT22;12678;51.336;12.406;2024-01-15T01:38:41;2.60;99.90
24518;DHT22;12678;51.336;12.406;2024-01-15T01:41:06;2.60;99.90
24518;DHT22;12678;51.336;12.406;2024-01-15T01:43:32;2.60;99.90
24518;DHT22;12678;51.336;12.406;2024-01-15T01:45:57;2.40;99.90
24518;DHT22;12678;51.336;12.406;2024-01-15T01:48:26;2.40;99.90
24518;DHT22;12678;51.336;12.406;2024-01-15T01:50:57;2.40;99.90
24518;DHT22;12678;51.336;12.406;2024-01-15T01:53:23;2.50;99.90
24518;DHT22;12678;51.336;12.406;2024-01-15T01:55:50;2.50;99.90
24518;DHT22;12678;51.336;12.406;2024-01-15T01:58:16;2.60;99.90
24518;DHT22;12678;51.336;12.406;2024-01-15T02:00:43;2.50;99.90
24518;DHT22;12678;51.336;12.406;2024-01-15T02:03:08;2.50;99.90
24518;DHT22;12678;51.336;12.406;2024-01-15T02:05:36;2.50;99.90
24518;DHT22;12678;51.336;12.406;2024-01-15T02:08:02;2.50;99.90
24518;DHT22;12678;51.336;12.406;2024-01-15T02:10:28;2.40;99.90
24518;DHT22;12678;51.336;12.406;2024-01-15T02:12:53;2.50;99.90
24518;DHT22;12678;51.336;12.406;2024-01-15T02:15:19;2.50;99.90
24518;DHT22;12678;51.336;12.406;2024-01-15T02:18:01;2.40;99.90
24518;DHT22;12678;51.336;12.406;2024-01-15T02:20:28;2.40;99.90
24518;DHT22;12678;51.336;12.406;2024-01-15T02:22:53;2.30;99.90
24518;DHT22;12678;51.336;12.406;2024-01-15T02:25:19;2.30;99.90
24518;DHT22;12678;51.336;12.406;2024-01-15T02:27:46;2.30;99.90
24518;DHT22;12678;51.336;12.406;2024-01-15T02:30:12;2.40;99.90
24518;DHT22;12678;51.336;12.406;2024-01-15T02:32:41;2.30;99.90
24518;DHT22;12678;51.336;12.406;2024-01-15T02:35:06;2.40;99.90
24518;DHT22;12678;51.336;12.406;2024-01-15T02:37:32;2.40;99.90
24518;DHT22;12678;51.336;12.406;2024-01-15T02:39:58;2.40;99.90
24518;DHT22;12678;51.336;12.406;2024-01-15T02:42:25;2.30;99.90
24518;DHT22;12678;51.336;12.406;2024-01-15T02:44:51;2.40;99.90
24518;DHT22;12678;51.336;12.406;2024-01-15T02:47:16;2.40;99.90
24518;DHT22;12678;51.336;12.406;2024-01-15T02:49:42;2.30;99.90
24518;DHT22;12678;51.336;12.406;2024-01-15T02:52:07;2.30;99.90
24518;DHT22;12678;51.336;12.406;2024-01-15T02:54:33;2.20;99.90
24518;DHT22;12678;51.336;12.406;2024-01-15T02:56:59;2.20;99.90
24518;DHT22;12678;51.336;12.406;2024-01-15T02:59:24;2.30;99.90
24518;DHT22;12678;51.336;12.406;2024-01-15T03:01:50;2.40;99.90
24518;DHT22;12678;51.336;12.406;2024-01-15T03:04:15;2.30;99.90
24518;DHT22;12678;51.336;12.406;2024-01-15T03:06:41;2.20;99.90
24518;DHT22;12678;51.336;12.406;2024-01-15T03:09:06;2.20;99.90
24518;DHT22;12678;51.336;12.406;2024-01-15T03:11:38;2.20;99.90
24518;DHT22;12678;51.336;12.406;2024-01-15T03:14:04;2.30;99.90
24518;DHT22;12678;51.336;12.406;2024-01-15T03:16:30;2.30;99.90
24518;DHT22;12678;51.336;12.406;2024-01-15T03:18:55;2.30;99.90
24518;DHT22;12678;51.336;12.406;2024-01-15T03:21:21;2.20;99.90
24518;DHT22;12678;51.336;12.406;2024-01-15T03:23:46;2.10;99.90
24518;DHT22;12678;51.336;12.406;2024-01-15T03:26:12;2.10;99.90
24518;DHT22;12678;51.336;12.406;2024-01-15T03:28:37;2.00;99.90
24518;DHT22;12678;51.336;12.406;2024-01-15T03:31:03;2.00;99.90
24518;DHT22;12678;51.336;12.406;2024-01-15T03:33:28;2.10;99.90
24518;DHT22;12678;51.336;12.406;2024-01-15T03:35:54;2.00;99.90
24518;DHT22;12678;51.336;12.406;2024-01-15T03:38:19;2.00;99.90
24518;DHT22;12678;51.336;12.406;2024-01-15T03:40:45;2.00;99.90
24518;DHT22;12678;51.336;12.406;2024-01-15T03:43:10;2.00;99.90
24518;DHT22;12678;51.336;12.406;2024-01-15T03:45:36;2.00;99.90
24518;DHT22;12678;51.336;12.406;2024-01-15T03:48:01;1.90;99.90
24518;DHT22;12678;51.336;12.406;2024-01-15T03:50:27;1.90;99.90
24518;DHT22;12678;51.336;12.406;2024-01-15T03:52:52;1.80;99.90
24518;DHT22;12678;51.336;12.406;2024-01-15T03:55:18;1.90;99.90
24518;DHT22;12678;51.336;12.406;2024-01-15T03:57:43;1.90;99.90
24518;DHT22;12678;51.336;12.406;2024-01-15T04:00:09;1.80;99.90
24518;DHT22;12678;51.336;12.406;2024-01-15T04:02:35;1.80;99.90
24518;DHT22;12678;51.336;12.406;2024-01-15T04:05:00;1.80;99.90
24518;DHT22;12678;51.336;12.406;2024-01-15T04:07:26;1.80;99.90
24518;DHT22;12678;51.336;12.406;2024-01-15T04:09:52;1.90;99.90
24518;DHT22;12678;51.336;12.406;2024-01-15T04:12:17;1.90;99.90
24518;DHT22;12678;51.336;12.406;2024-01-15T04:14:43;1.90;99.90
24518;DHT22;12678;51.336;12.406;2024-01-15T04:17:08;1.90;99.90
24518;DHT22;12678;51.336;12.406;2024-01-15T04:19:34;1.90;99.90
24518;DHT22;12678;51.336;12.406;2024-01-15T04:21:59;2.00;99.90
24518;DHT22;12678;51.336;12.406;2024-01-15T04:24:25;2.00;99.90
24518;DHT22;12678;51.336;12.406;2024-01-15T04:26:50;2.10;99.90
24518;DHT22;12678;51.336;12.406;2024-01-15T04:29:16;2.10;99.90
24518;DHT22;12678;51.336;12.406;2024-01-15T04:31:41;2.10;99.90
24518;DHT22;12678;51.336;12.406;2024-01-15T04:34:07;2.00;99.90
24518;DHT22;12678;51.336;12.406;2024-01-15T04:36:39;2.00;99.90
24518;DHT22;12678;51.336;12.406;2024-01-15T04:39:05;2.00;99.90
24518;DHT22;12678;51.336;12.406;2024-01-15T04:41:30;1.90;99.90
24518;DHT22;12678;51.336;12.406;2024-01-15T04:43:56;1.90;99.90
24518;DHT22;12678;51.336;12.406;2024-01-15T04:46:21;1.80;99.90
24518;DHT22;12678;51.336;12.406;2024-01-15T04:48:47;1.80;99.90
24518;DHT22;12678;51.336;12.406;2024-01-15T04:51:12;1.80;99.90
24518;DHT22;12678;51.336;12.406;2024-01-15T04:53:38;1.90;99.90
24518;DHT22;12678;51.336;12.406;2024-01-15T04:56:04;1.80;99.90
24518;DHT22;12678;51.336;12.406;2024-01-15T04:58:29;1.80;99.90
24518;DHT22;12678;51.336;12.406;2024-01-15T05:00:55;1.90;99.90
24518;DHT22;12678;51.336;12.406;2024-01-15T05:03:20;1.90;99.90
24518;DHT22;12678;51.336;12.406;2024-01-15T05:05:46;2.00;99.90
24518;DHT22;12678;51.336;12.406;2024-01-15T05:08:11;2.00;99.90
24518;DHT22;12678;51.336;12.406;2024-01-15T05:10:37;2.00;99.90
24518;DHT22;12678;51.336;12.406;2024-01-15T05:13:02;2.10;99.90
24518;DHT22;12678;51.336;12.406;2024-01-15T05:15:28;2.20;99.90
24518;DHT22;12678;51.336;12.406;2024-01-15T05:17:53;2.20;99.90
24518;DHT22;12678;51.336;12.406;2024-01-15T05:20:19;2.20;99.90
24518;DHT22;12678;51.336;12.406;2024-01-15T05:22:44;2.20;99.90
24518;DHT22;12678;51.336;12.406;2024-01-15T05:25:10;2.20;99.90
24518;DHT22;12678;51.336;12.406;2024-01-15T05:27:35;2.30;99.90
24518;DHT22;12678;51.336;12.406;2024-01-15T05:30:01;2.30;99.90
24518;DHT22;12678;51.336;12.406;2024-01-15T05:32:27;2.30;99.90
24518;DHT22;12678;51.336;12.406;2024-01-15T05:34:52;2.10;99.90
24518;DHT22;12678;51.336;12.406;2024-01-15T05:37:18;2.10;99.90
24518;DHT22;12678;51.336;12.406;2024-01-15T05:39:43;2.10;99.90
24518;DHT22;12678;51.336;12.406;2024-01-15T05:42:09;2.10;99.90
24518;DHT22;12678;51.336;12.406;2024-01-15T05:44:34;2.00;99.90
24518;DHT22;12678;51.336;12.406;2024-01-15T05:47:00;1.90;99.90
24518;DHT22;12678;51.336;12.406;2024-01-15T05:49:25;2.00;99.90
24518;DHT22;12678;51.336;12.406;2024-01-15T05:51:51;2.00;99.90
24518;DHT22;12678;51.336;12.406;2024-01-15T05:54:18;2.20;99.90
24518;DHT22;12678;51.336;12.406;2024-01-15T05:56:45;2.10;99.90
24518;DHT22;12678;51.336;12.406;2024-01-15T05:59:10;2.10;99.90
24518;DHT22;12678;51.336;12.406;2024-01-15T06:01:36;2.10;99.90
24518;DHT22;12678;51.336;12.406;2024-01-15T06:04:01;2.10;99.90
24518;DHT22;12678;51.336;12.406;2024-01-15T06:06:27;2.00;99.90
24518;DHT22;12678;51.336;12.406;2024-01-15T06:08:53;2.10;99.90
24518;DHT22;12678;51.336;12.406;2024-01-15T06:11:18;2.10;99.90
24518;DHT22;12678;51.336;12.406;2024-01-15T06:13:44;2.20;99.90
24518;DHT22;12678;51.336;12.406;2024-01-15T06:16:16;2.10;99.90
24518;DHT22;12678;51.336;12.406;2024-01-15T06:18:42;2.00;99.90
24518;DHT22;12678;51.336;12.406;2024-01-15T06:21:07;2.10;99.90
24518;DHT22;12678;51.336;12.406;2024-01-15T06:23:36;2.10;99.90
24518;DHT22;12678;51.336;12.406;2024-01-15T06:26:02;2.10;99.90
24518;DHT22;12678;51.336;12.406;2024-01-15T06:28:29;2.10;99.90
24518;DHT22;12678;51.336;12.406;2024-01-15T06:30:54;2.20;99.90
24518;DHT22;12678;51.336;12.406;2024-01-15T06:33:20;2.10;99.90
24518;DHT22;12678;51.336;12.406;2024-01-15T06:35:45;2.20;99.90
24518;DHT22;12678;51.336;12.406;2024-01-15T06:38:11;2.20;99.90
24518;DHT22;12678;51.336;12.406;2024-01-15T06:40:36;2.20;99.90
24518;DHT22;12678;51.336;12.406;2024-01-15T06:43:02;2.30;99.90
24518;DHT22;12678;51.336;12.406;2024-01-15T06:45:28;2.30;99.90
24518;DHT22;12678;51.336;12.406;2024-01-15T06:47:53;2.30;99.90
24518;DHT22;12678;51.336;12.406;2024-01-15T06:50:19;2.30;99.90
24518;DHT22;12678;51.336;12.406;2024-01-15T06:52:44;2.30;99.90
24518;DHT22;12678;51.336;12.406;2024-01-15T06:55:10;2.20;99.90
24518;DHT22;12678;51.336;12.406;2024-01-15T06:57:35;2.30;99.90
24518;DHT22;12678;51.336;12.406;2024-01-15T07:00:01;2.20;99.90
24518;DHT22;12678;51.336;12.406;2024-01-15T07:02:26;2.10;99.90
24518;DHT22;12678;51.336;12.406;2024-01-15T07:04:52;2.10;99.90
24518;DHT22;12678;51.336;12.406;2024-01-15T07:07:17;2.10;99.90
24518;DHT22;12678;51.336;12.406;2024-01-15T07:09:43;2.20;99.90
24518;DHT22;12678;51.336;12.406;2024-01-15T07:12:08;2.20;99.90
24518;DHT22;12678;51.336;12.406;2024-01-15T07:14:34;2.20;99.90
24518;DHT22;12678;51.336;12.406;2024-01-15T07:16:59;2.20;99.90
24518;DHT22;12678;51.336;12.406;2024-01-15T07:19:25;2.20;99.90
24518;DHT22;12678;51.336;12.406;2024-01-15T07:21:50;2.20;99.90
24518;DHT22;12678;51.336;12.406;2024-01-15T07:24:16;2.30;99.90
24518;DHT22;12678;51.336;12.406;2024-01-15T07:26:41;2.30;99.90
24518;DHT22;12678;51.336;12.406;2024-01-15T07:29:07;2.20;99.90
24518;DHT22;12678;51.336;12.406;2024-01-15T07:31:33;2.10;99.90
24518;DHT22;12678;51.336;12.406;2024-01-15T07:33:59;2.10;99.90
24518;DHT22;12678;51.336;12.406;2024-01-15T07:36:25;2.10;99.90
24518;DHT22;12678;51.336;12.406;2024-01-15T07:38:51;2.10;99.90
24518;DHT22;12678;51.336;12.406;2024-01-15T07:41:16;2.10;99.90
24518;DHT22;12678;51.336;12.406;2024-01-15T07:43:42;2.10;99.90
24518;DHT22;12678;51.336;12.406;2024-01-15T07:46:07;2.00;99.90
24518;DHT22;12678;51.336;12.406;2024-01-15T07:48:33;2.00;99.90
24518;DHT22;12678;51.336;12.406;2024-01-15T07:50:59;2.00;99.90
24518;DHT22;12678;51.336;12.406;2024-01-15T07:53:25;2.20;99.90
24518;DHT22;12678;51.336;12.406;2024-01-15T07:55:50;2.10;99.90
24518;DHT22;12678;51.336;12.406;2024-01-15T07:58:16;2.20;99.90
24518;DHT22;12678;51.336;12.406;2024-01-15T08:00:41;2.20;99.90
24518;DHT22;12678;51.336;12.406;2024-01-15T08:03:07;2.10;99.90
24518;DHT22;12678;51.336;12.406;2024-01-15T08:05:32;2.20;99.90
24518;DHT22;12678;51.336;12.406;2024-01-15T08:07:58;2.20;99.90
24518;DHT22;12678;51.336;12.406;2024-01-15T08:10:23;2.30;99.90
24518;DHT22;12678;51.336;12.406;2024-01-15T08:12:49;2.30;99.90
24518;DHT22;12678;51.336;12.406;2024-01-15T08:15:14;2.40;99.90
24518;DHT22;12678;51.336;12.406;2024-01-15T08:17:40;2.30;99.90
24518;DHT22;12678;51.336;12.406;2024-01-15T08:20:07;2.50;99.90
24518;DHT22;12678;51.336;12.406;2024-01-15T08:22:32;2.50;99.90
24518;DHT22;12678;51.336;12.406;2024-01-15T08:24:58;2.40;99.90
24518;DHT22;12678;51.336;12.406;2024-01-15T08:27:23;2.30;99.90
24518;DHT22;12678;51.336;12.406;2024-01-15T08:29:49;2.30;99.90
24518;DHT22;12678;51.336;12.406;2024-01-15T08:32:14;2.30;99.90
24518;DHT22;12678;51.336;12.406;2024-01-15T08:34:41;2.40;99.90
24518;DHT22;12678;51.336;12.406;2024-01-15T08:37:07;2.40;99.90
24518;DHT22;12678;51.336;12.406;2024-01-15T08:39:32;2.40;99.90
24518;DHT22;12678;51.336;12.406;2024-01-15T08:41:58;2.50;99.90
24518;DHT22;12678;51.336;12.406;2024-01-15T08:44:23;2.60;99.90
24518;DHT22;12678;51.336;12.406;2024-01-15T08:46:49;2.60;99.90
24518;DHT22;12678;51.336;12.406;2024-01-15T08:49:14;2.60;99.90
24518;DHT22;12678;51.336;12.406;2024-01-15T08:51:40;2.70;99.90
24518;DHT22;12678;51.336;12.406;2024-01-15T08:54:05;2.80;99.90
24518;DHT22;12678;51.336;12.406;2024-01-15T08:56:33;2.80;99.90
24518;DHT22;12678;51.336;12.406;2024-01-15T08:58:59;2.70;99.90
24518;DHT22;12678;51.336;12.406;2024-01-15T09:01:24;2.70;99.90
24518;DHT22;12678;51.336;12.406;2024-01-15T09:03:50;2.70;99.90
24518;DHT22;12678;51.336;12.406;2024-01-15T09:06:16;2.60;99.90
24518;DHT22;12678;51.336;12.406;2024-01-15T09:08:41;2.60;99.90
24518;DHT22;12678;51.336;12.406;2024-01-15T09:11:07;2.70;99.90
24518;DHT22;12678;51.336;12.406;2024-01-15T09:13:32;2.80;99.90
24518;DHT22;12678;51.336;12.406;2024-01-15T09:15:58;2.80;99.90
24518;DHT22;12678;51.336;12.406;2024-01-15T09:18:25;2.80;99.90
24518;DHT22;12678;51.336;12.406;2024-01-15T09:20:50;2.90;99.90
24518;DHT22;12678;51.336;12.406;2024-01-15T09:23:16;2.90;99.90
24518;DHT22;12678;51.336;12.406;2024-01-15T09:25:41;3.00;99.90
24518;DHT22;12678;51.336;12.406;2024-01-15T09:28:07;2.90;99.90
24518;DHT22;12678;51.336;12.406;2024-01-15T09:30:33;2.90;99.90
24518;DHT22;12678;51.336;12.406;2024-01-15T09:32:59;2.80;99.90
24518;DHT22;12678;51.336;12.406;2024-01-15T09:35:24;2.80;99.90
24518;DHT22;12678;51.336;12.406;2024-01-15T09:37:49;2.80;99.90
24518;DHT22;12678;51.336;12.406;2024-01-15T09:40:15;2.80;99.90
24518;DHT22;12678;51.336;12.406;2024-01-15T09:42:42;2.80;99.90
24518;DHT22;12678;51.336;12.406;2024-01-15T09:45:08;2.80;99.90
24518;DHT22;12678;51.336;12.406;2024-01-15T09:47:36;2.70;99.90
24518;DHT22;12678;51.336;12.406;2024-01-15T09:50:02;2.70;99.90
24518;DHT22;12678;51.336;12.406;2024-01-15T09:52:30;2.80;99.90
24518;DHT22;12678;51.336;12.406;2024-01-15T09:54:57;2.90;99.90
24518;DHT22;12678;51.336;12.406;2024-01-15T09:57:24;2.90;99.90
24518;DHT22;12678;51.336;12.406;2024-01-15T09:59:51;3.00;99.90
24518;DHT22;12678;51.336;12.406;2024-01-15T10:02:17;2.90;99.90
24518;DHT22;12678;51.336;12.406;2024-01-15T10:04:44;3.10;99.90
24518;DHT22;12678;51.336;12.406;2024-01-15T10:07:14;3.20;99.90
24518;DHT22;12678;51.336;12.406;2024-01-15T10:09:40;3.20;99.90
24518;DHT22;12678;51.336;12.406;2024-01-15T10:12:07;3.20;99.90
24518;DHT22;12678;51.336;12.406;2024-01-15T10:14:33;3.20;99.90
24518;DHT22;12678;51.336;12.406;2024-01-15T10:16:58;3.10;99.90
24518;DHT22;12678;51.336;12.406;2024-01-15T10:19:24;3.20;99.90
24518;DHT22;12678;51.336;12.406;2024-01-15T10:21:49;3.10;99.90
24518;DHT22;12678;51.336;12.406;2024-01-15T10:24:15;3.20;99.90
24518;DHT22;12678;51.336;12.406;2024-01-15T10:26:40;3.30;99.90
24518;DHT22;12678;51.336;12.406;2024-01-15T10:29:06;3.40;99.90
24518;DHT22;12678;51.336;12.406;2024-01-15T10:31:32;3.40;99.90
24518;DHT22;12678;51.336;12.406;2024-01-15T10:34:13;3.30;99.90
24518;DHT22;12678;51.336;12.406;2024-01-15T10:36:41;3.40;99.90
24518;DHT22;12678;51.336;12.406;2024-01-15T10:39:06;3.40;99.90
24518;DHT22;12678;51.336;12.406;2024-01-15T10:41:33;3.20;99.90
24518;DHT22;12678;51.336;12.406;2024-01-15T10:43:58;3.30;99.90
24518;DHT22;12678;51.336;12.406;2024-01-15T10:46:25;3.50;99.90
24518;DHT22;12678;51.336;12.406;2024-01-15T10:48:52;3.50;99.90
24518;DHT22;12678;51.336;12.406;2024-01-15T10:51:19;3.50;99.90
24518;DHT22;12678;51.336;12.406;2024-01-15T10:53:45;3.60;99.90
24518;DHT22;12678;51.336;12.406;2024-01-15T10:56:11;3.60;99.90
24518;DHT22;12678;51.336;12.406;2024-01-15T10:58:39;3.60;99.90
24518;DHT22;12678;51.336;12.406;2024-01-15T11:01:05;3.50;99.90
24518;DHT22;12678;51.336;12.406;2024-01-15T11:03:31;3.50;99.90
24518;DHT22;12678;51.336;12.406;2024-01-15T11:05:56;3.60;99.90
24518;DHT22;12678;51.336;12.406;2024-01-15T11:08:24;3.60;99.90
24518;DHT22;12678;51.336;12.406;2024-01-15T11:10:51;3.60;99.90
24518;DHT22;12678;51.336;12.406;2024-01-15T11:13:40;3.60;99.90
24518;DHT22;12678;51.336;12.406;2024-01-15T11:16:08;3.70;99.90
24518;DHT22;12678;51.336;12.406;2024-01-15T11:18:40;3.80;99.90
24518;DHT22;12678;51.336;12.406;2024-01-15T11:23:47;3.90;99.90
24518;DHT22;12678;51.336;12.406;2024-01-15T11:26:35;4.00;99.90
24518;DHT22;12678;51.336;12.406;2024-01-15T11:29:10;4.10;99.90
24518;DHT22;12678;51.336;12.406;2024-01-15T11:34:07;4.10;99.90
24518;DHT22;12678;51.336;12.406;2024-01-15T11:42:00;4.20;99.90
24518;DHT22;12678;51.336;12.406;2024-01-15T11:44:27;4.20;99.90
24518;DHT22;12678;51.336;12.406;2024-01-15T11:47:03;4.20;99.90
24518;DHT22;12678;51.336;12.406;2024-01-15T11:50:03;4.20;99.90
24518;DHT22;12678;51.336;12.406;2024-01-15T11:52:37;4.20;99.90
24518;DHT22;12678;51.336;12.406;2024-01-15T11:55:26;4.20;99.90
24518;DHT22;12678;51.336;12.406;2024-01-15T11:57:54;4.20;99.90
24518;DHT22;12678;51.336;12.406;2024-01-15T12:00:21;4.20;99.90
24518;DHT22;12678;51.336;12.406;2024-01-15T12:02:49;4.20;99.90
24518;DHT22;12678;51.336;12.406;2024-01-15T12:05:17;4.20;99.90
24518;DHT22;12678;51.336;12.406;2024-01-15T12:07:44;4.20;99.90
24518;DHT22;12678;51.336;12.406;2024-01-15T12:10:11;4.30;99.90
24518;DHT22;12678;51.336;12.406;2024-01-15T12:15:11;4.20;99.90
24518;DHT22;12678;51.336;12.406;2024-01-15T12:17:38;4.30;99.90
24518;DHT22;12678;51.336;12.406;2024-01-15T12:20:05;4.50;99.90
24518;DHT22;12678;51.336;12.406;2024-01-15T12:22:31;4.60;99.90
24518;DHT22;12678;51.336;12.406;2024-01-15T12:24:57;4.70;99.90
24518;DHT22;12678;51.336;12.406;2024-01-15T12:27:23;4.70;99.90
24518;DHT22;12678;51.336;12.406;2024-01-15T12:29:49;4.70;99.90
24518;DHT22;12678;51.336;12.406;2024-01-15T12:32:14;4.70;99.90
24518;DHT22;12678;51.336;12.406;2024-01-15T12:34:40;4.50;99.90
24518;DHT22;12678;51.336;12.406;2024-01-15T12:37:07;4.50;99.90
24518;DHT22;12678;51.336;12.406;2024-01-15T12:39:36;4.40;99.90
24518;DHT22;12678;51.336;12.406;2024-01-15T12:42:02;4.40;99.90
24518;DHT22;12678;51.336;12.406;2024-01-15T12:44:29;4.50;99.90
24518;DHT22;12678;51.336;12.406;2024-01-15T12:46:54;4.60;99.90
24518;DHT22;12678;51.336;12.406;2024-01-15T12:49:21;4.60;99.90
24518;DHT22;12678;51.336;12.406;2024-01-15T12:51:57;4.70;99.90
24518;DHT22;12678;51.336;12.406;2024-01-15T12:54:23;4.60;99.90
24518;DHT22;12678;51.336;12.406;2024-01-15T12:56:50;4.60;99.90
24518;DHT22;12678;51.336;12.406;2024-01-15T12:59:17;4.60;99.90
24518;DHT22;12678;51.336;12.406;2024-01-15T13:01:43;4.50;99.90
24518;DHT22;12678;51.336;12.406;2024-01-15T13:04:08;4.50;99.90
24518;DHT22;12678;51.336;12.406;2024-01-15T13:06:35;4.30;99.90
24518;DHT22;12678;51.336;12.406;2024-01-15T13:09:00;4.20;99.90
24518;DHT22;12678;51.336;12.406;2024-01-15T13:11:27;4.20;99.90
24518;DHT22;12678;51.336;12.406;2024-01-15T13:13:52;4.10;99.90
24518;DHT22;12678;51.336;12.406;2024-01-15T13:16:18;4.10;99.90
24518;DHT22;12678;51.336;12.406;2024-01-15T13:18:46;4.10;99.90
24518;DHT22;12678;51.336;12.406;2024-01-15T13:21:11;4.20;99.90
24518;DHT22;12678;51.336;12.406;2024-01-15T13:23:38;4.20;99.90
24518;DHT22;12678;51.336;12.406;2024-01-15T13:26:04;4.20;99.90
24518;DHT22;12678;51.336;12.406;2024-01-15T13:28:30;4.30;99.90
24518;DHT22;12678;51.336;12.406;2024-01-15T13:30:56;4.30;99.90
24518;DHT22;12678;51.336;12.406;2024-01-15T13:33:21;4.10;99.90
24518;DHT22;12678;51.336;12.406;2024-01-15T13:35:47;4.20;99.90
24518;DHT22;12678;51.336;12.406;2024-01-15T13:38:15;4.20;99.90
24518;DHT22;12678;51.336;12.406;2024-01-15T13:40:41;4.20;99.90
24518;DHT22;12678;51.336;12.406;2024-01-15T13:43:06;4.10;99.90
24518;DHT22;12678;51.336;12.406;2024-01-15T13:45:34;4.20;99.90
24518;DHT22;12678;51.336;12.406;2024-01-15T13:47:59;4.20;99.90
24518;DHT22;12678;51.336;12.406;2024-01-15T13:50:25;4.20;99.90
24518;DHT22;12678;51.336;12.406;2024-01-15T13:52:50;4.20;99.90
24518;DHT22;12678;51.336;12.406;2024-01-15T13:55:16;4.20;99.90
24518;DHT22;12678;51.336;12.406;2024-01-15T13:57:42;4.10;99.90
24518;DHT22;12678;51.336;12.406;2024-01-15T14:00:08;4.10;99.90
24518;DHT22;12678;51.336;12.406;2024-01-15T14:02:37;4.10;99.90
24518;DHT22;12678;51.336;12.406;2024-01-15T14:05:02;3.90;99.90
24518;DHT22;12678;51.336;12.406;2024-01-15T14:07:28;4.00;99.90
24518;DHT22;12678;51.336;12.406;2024-01-15T14:09:54;4.00;99.90
24518;DHT22;12678;51.336;12.406;2024-01-15T14:12:19;4.10;99.90
24518;DHT22;12678;51.336;12.406;2024-01-15T14:14:45;4.10;99.90
24518;DHT22;12678;51.336;12.406;2024-01-15T14:17:11;4.20;99.90
24518;DHT22;12678;51.336;12.406;2024-01-15T14:19:37;4.20;99.90
24518;DHT22;12678;51.336;12.406;2024-01-15T14:22:03;4.10;99.90
24518;DHT22;12678;51.336;12.406;2024-01-15T14:24:28;4.10;99.90
24518;DHT22;12678;51.336;12.406;2024-01-15T14:26:54;4.20;99.90
24518;DHT22;12678;51.336;12.406;2024-01-15T14:29:19;4.20;99.90
24518;DHT22;12678;51.336;12.406;2024-01-15T14:31:47;4.20;99.90
24518;DHT22;12678;51.336;12.406;2024-01-15T14:34:13;4.10;99.90
24518;DHT22;12678;51.336;12.406;2024-01-15T14:36:38;4.10;99.90
24518;DHT22;12678;51.336;12.406;2024-01-15T14:39:04;4.00;99.90
24518;DHT22;12678;51.336;12.406;2024-01-15T14:41:34;4.00;99.90
24518;DHT22;12678;51.336;12.406;2024-01-15T14:44:00;3.90;99.90
24518;DHT22;12678;51.336;12.406;2024-01-15T14:46:26;3.90;99.90
24518;DHT22;12678;51.336;12.406;2024-01-15T14:48:53;3.80;99.90
24518;DHT22;12678;51.336;12.406;2024-01-15T14:51:18;3.80;99.90
24518;DHT22;12678;51.336;12.406;2024-01-15T14:53:44;3.70;99.90
24518;DHT22;12678;51.336;12.406;2024-01-15T14:56:10;3.80;99.90
24518;DHT22;12678;51.336;12.406;2024-01-15T14:58:35;3.80;99.90
24518;DHT22;12678;51.336;12.406;2024-01-15T15:01:01;3.80;99.90
24518;DHT22;12678;51.336;12.406;2024-01-15T15:03:26;3.80;99.90
24518;DHT22;12678;51.336;12.406;2024-01-15T15:05:53;3.90;99.90
24518;DHT22;12678;51.336;12.406;2024-01-15T15:08:19;3.90;99.90
24518;DHT22;12678;51.336;12.406;2024-01-15T15:10:44;3.90;99.90
24518;DHT22;12678;51.336;12.406;2024-01-15T15:13:10;3.90;99.90
24518;DHT22;12678;51.336;12.406;2024-01-15T15:15:35;3.80;99.90
24518;DHT22;12678;51.336;12.406;2024-01-15T15:18:01;3.80;99.90
24518;DHT22;12678;51.336;12.406;2024-01-15T15:20:27;3.80;99.90
24518;DHT22;12678;51.336;12.406;2024-01-15T15:22:52;3.80;99.90
24518;DHT22;12678;51.336;12.406;2024-01-15T15:25:21;3.70;99.90
24518;DHT22;12678;51.336;12.406;2024-01-15T15:27:47;3.70;99.90
24518;DHT22;12678;51.336;12.406;2024-01-15T15:30:13;3.70;99.90
24518;DHT22;12678;51.336;12.406;2024-01-15T15:32:39;3.70;99.90
24518;DHT22;12678;51.336;12.406;2024-01-15T15:35:04;3.70;99.90
24518;DHT22;12678;51.336;12.406;2024-01-15T15:37:30;3.70;99.90